Atomic City, Idaho
Current Conditions -  °F | °C
As of 2:53 PM on Monday 22 Dec 2014 (Local Time) from KIDA Reporting Station
Broken Clouds Broken Clouds  
Wind Chill: 30°   Ceiling: 11000
Heat Index: 38°   Visibility: 10mi
Dew Point: 26°   Wind: 12mph
Humidity: 62%   Direction: 330°NNW
Pressure: 29.99"   Gusts: NA
Location:  43.44°N, 112.81°W
Report Text: KIDA 222153Z 33010KT 10SM SCT085 BKN110 03/M03 A2999 RMK AO2 SLP168 T00331033
Loading
Personal Weather Stations






























Interactive Weather Map New forecast layout! Learn more

10-Day Weather Forecast

Advertisements
Track Severe Weather on mobile